sensor_id;sensor_type;location;lat;lon;timestamp;P1;durP1;ratioP1;P2;durP2;ratioP2
11039;SDS011;5573;49.592;8.662;2023-04-29T00:00:49;391.40;;;368.50;;
11039;SDS011;5573;49.592;8.662;2023-04-29T00:03:17;408.25;;;384.45;;
11039;SDS011;5573;49.592;8.662;2023-04-29T00:05:45;421.73;;;397.52;;
11039;SDS011;5573;49.592;8.662;2023-04-29T00:08:13;419.17;;;395.20;;
11039;SDS011;5573;49.592;8.662;2023-04-29T00:10:42;384.27;;;362.23;;
11039;SDS011;5573;49.592;8.662;2023-04-29T00:13:10;415.27;;;390.73;;
11039;SDS011;5573;49.592;8.662;2023-04-29T00:15:38;398.70;;;375.70;;
11039;SDS011;5573;49.592;8.662;2023-04-29T00:18:07;413.88;;;389.52;;
11039;SDS011;5573;49.592;8.662;2023-04-29T00:20:55;402.33;;;378.98;;
11039;SDS011;5573;49.592;8.662;2023-04-29T00:23:23;395.95;;;373.25;;
11039;SDS011;5573;49.592;8.662;2023-04-29T00:25:52;377.23;;;355.75;;
11039;SDS011;5573;49.592;8.662;2023-04-29T00:28:19;394.73;;;372.40;;
11039;SDS011;5573;49.592;8.662;2023-04-29T00:30:48;410.63;;;387.15;;
11039;SDS011;5573;49.592;8.662;2023-04-29T00:33:15;411.42;;;388.00;;
11039;SDS011;5573;49.592;8.662;2023-04-29T00:35:43;405.40;;;382.45;;
11039;SDS011;5573;49.592;8.662;2023-04-29T00:38:12;402.15;;;379.15;;
11039;SDS011;5573;49.592;8.662;2023-04-29T00:40:39;400.77;;;377.77;;
11039;SDS011;5573;49.592;8.662;2023-04-29T00:43:10;430.85;;;405.58;;
11039;SDS011;5573;49.592;8.662;2023-04-29T00:45:38;416.55;;;393.15;;
11039;SDS011;5573;49.592;8.662;2023-04-29T00:48:05;407.35;;;383.60;;
11039;SDS011;5573;49.592;8.662;2023-04-29T00:50:34;408.15;;;384.50;;
11039;SDS011;5573;49.592;8.662;2023-04-29T00:53:03;417.90;;;393.38;;
11039;SDS011;5573;49.592;8.662;2023-04-29T00:55:32;398.33;;;376.17;;
11039;SDS011;5573;49.592;8.662;2023-04-29T00:58:00;448.20;;;422.58;;
11039;SDS011;5573;49.592;8.662;2023-04-29T01:00:29;404.30;;;381.23;;
11039;SDS011;5573;49.592;8.662;2023-04-29T01:02:57;428.98;;;403.27;;
11039;SDS011;5573;49.592;8.662;2023-04-29T01:05:26;410.15;;;386.15;;
11039;SDS011;5573;49.592;8.662;2023-04-29T01:07:58;409.25;;;385.52;;
11039;SDS011;5573;49.592;8.662;2023-04-29T01:10:38;394.50;;;372.13;;
11039;SDS011;5573;49.592;8.662;2023-04-29T01:13:13;419.95;;;395.92;;
11039;SDS011;5573;49.592;8.662;2023-04-29T01:15:48;426.50;;;401.85;;
11039;SDS011;5573;49.592;8.662;2023-04-29T01:18:25;412.42;;;388.35;;
11039;SDS011;5573;49.592;8.662;2023-04-29T01:20:56;405.30;;;381.52;;
11039;SDS011;5573;49.592;8.662;2023-04-29T01:23:26;400.45;;;377.10;;
11039;SDS011;5573;49.592;8.662;2023-04-29T01:25:55;442.52;;;416.65;;
11039;SDS011;5573;49.592;8.662;2023-04-29T01:28:42;397.75;;;374.65;;
11039;SDS011;5573;49.592;8.662;2023-04-29T01:31:18;391.20;;;368.40;;
11039;SDS011;5573;49.592;8.662;2023-04-29T01:33:54;410.77;;;386.80;;
11039;SDS011;5573;49.592;8.662;2023-04-29T01:36:35;400.63;;;377.80;;
11039;SDS011;5573;49.592;8.662;2023-04-29T01:39:14;389.88;;;367.48;;
11039;SDS011;5573;49.592;8.662;2023-04-29T01:41:56;414.58;;;390.55;;
11039;SDS011;5573;49.592;8.662;2023-04-29T01:44:29;396.48;;;373.63;;
11039;SDS011;5573;49.592;8.662;2023-04-29T01:46:59;380.42;;;358.60;;
11039;SDS011;5573;49.592;8.662;2023-04-29T01:49:37;405.67;;;382.23;;
11039;SDS011;5573;49.592;8.662;2023-04-29T01:52:05;390.70;;;368.02;;
11039;SDS011;5573;49.592;8.662;2023-04-29T01:54:36;386.65;;;364.08;;
11039;SDS011;5573;49.592;8.662;2023-04-29T01:57:04;388.35;;;366.63;;
11039;SDS011;5573;49.592;8.662;2023-04-29T01:59:41;404.20;;;381.38;;
11039;SDS011;5573;49.592;8.662;2023-04-29T02:02:16;387.70;;;365.20;;
11039;SDS011;5573;49.592;8.662;2023-04-29T02:04:55;364.85;;;344.30;;
11039;SDS011;5573;49.592;8.662;2023-04-29T02:07:23;385.27;;;363.40;;
11039;SDS011;5573;49.592;8.662;2023-04-29T02:09:52;420.00;;;395.63;;
11039;SDS011;5573;49.592;8.662;2023-04-29T02:12:21;404.58;;;381.33;;
11039;SDS011;5573;49.592;8.662;2023-04-29T02:14:50;402.02;;;379.40;;
11039;SDS011;5573;49.592;8.662;2023-04-29T02:17:19;392.17;;;369.77;;
11039;SDS011;5573;49.592;8.662;2023-04-29T02:19:46;400.42;;;377.38;;
11039;SDS011;5573;49.592;8.662;2023-04-29T02:22:14;382.65;;;360.35;;
11039;SDS011;5573;49.592;8.662;2023-04-29T02:24:42;385.83;;;363.73;;
11039;SDS011;5573;49.592;8.662;2023-04-29T02:27:11;392.27;;;369.58;;
11039;SDS011;5573;49.592;8.662;2023-04-29T02:29:38;409.33;;;386.10;;
11039;SDS011;5573;49.592;8.662;2023-04-29T02:32:07;378.05;;;356.60;;
11039;SDS011;5573;49.592;8.662;2023-04-29T02:34:36;408.05;;;384.60;;
11039;SDS011;5573;49.592;8.662;2023-04-29T02:37:05;392.75;;;369.92;;
11039;SDS011;5573;49.592;8.662;2023-04-29T02:39:32;389.05;;;367.08;;
11039;SDS011;5573;49.592;8.662;2023-04-29T02:42:00;387.75;;;365.30;;
11039;SDS011;5573;49.592;8.662;2023-04-29T02:44:29;397.40;;;374.40;;
11039;SDS011;5573;49.592;8.662;2023-04-29T02:46:57;397.75;;;374.65;;
11039;SDS011;5573;49.592;8.662;2023-04-29T02:49:25;388.00;;;365.85;;
11039;SDS011;5573;49.592;8.662;2023-04-29T02:51:53;380.70;;;359.05;;
11039;SDS011;5573;49.592;8.662;2023-04-29T02:54:21;394.00;;;371.15;;
11039;SDS011;5573;49.592;8.662;2023-04-29T02:56:49;400.75;;;377.92;;
11039;SDS011;5573;49.592;8.662;2023-04-29T02:59:16;381.13;;;360.00;;
11039;SDS011;5573;49.592;8.662;2023-04-29T03:01:46;406.38;;;382.50;;
11039;SDS011;5573;49.592;8.662;2023-04-29T03:04:14;402.08;;;378.75;;
11039;SDS011;5573;49.592;8.662;2023-04-29T03:06:42;392.85;;;369.83;;
11039;SDS011;5573;49.592;8.662;2023-04-29T03:09:10;384.23;;;362.13;;
11039;SDS011;5573;49.592;8.662;2023-04-29T03:11:42;390.30;;;367.55;;
11039;SDS011;5573;49.592;8.662;2023-04-29T03:14:10;387.75;;;365.60;;
11039;SDS011;5573;49.592;8.662;2023-04-29T03:16:39;401.17;;;378.40;;
11039;SDS011;5573;49.592;8.662;2023-04-29T03:19:08;379.02;;;357.55;;
11039;SDS011;5573;49.592;8.662;2023-04-29T03:21:35;397.52;;;375.00;;
11039;SDS011;5573;49.592;8.662;2023-04-29T03:24:03;394.80;;;372.45;;
11039;SDS011;5573;49.592;8.662;2023-04-29T03:26:33;381.25;;;359.98;;
11039;SDS011;5573;49.592;8.662;2023-04-29T03:29:02;365.88;;;345.17;;
11039;SDS011;5573;49.592;8.662;2023-04-29T03:31:32;407.77;;;384.83;;
11039;SDS011;5573;49.592;8.662;2023-04-29T03:34:00;389.50;;;367.02;;
11039;SDS011;5573;49.592;8.662;2023-04-29T03:36:32;378.65;;;357.83;;
11039;SDS011;5573;49.592;8.662;2023-04-29T03:39:05;387.05;;;365.17;;
11039;SDS011;5573;49.592;8.662;2023-04-29T03:41:32;375.55;;;355.10;;
11039;SDS011;5573;49.592;8.662;2023-04-29T03:44:00;375.92;;;354.58;;
11039;SDS011;5573;49.592;8.662;2023-04-29T03:46:28;380.23;;;358.48;;
11039;SDS011;5573;49.592;8.662;2023-04-29T03:48:56;383.10;;;361.58;;
11039;SDS011;5573;49.592;8.662;2023-04-29T03:51:24;369.73;;;348.92;;
11039;SDS011;5573;49.592;8.662;2023-04-29T03:54:00;361.90;;;342.08;;
11039;SDS011;5573;49.592;8.662;2023-04-29T03:56:28;386.52;;;364.15;;
11039;SDS011;5573;49.592;8.662;2023-04-29T03:58:56;399.13;;;376.80;;
11039;SDS011;5573;49.592;8.662;2023-04-29T04:01:25;373.80;;;352.58;;
11039;SDS011;5573;49.592;8.662;2023-04-29T04:03:53;385.70;;;363.92;;
11039;SDS011;5573;49.592;8.662;2023-04-29T04:06:21;371.55;;;350.45;;
11039;SDS011;5573;49.592;8.662;2023-04-29T04:08:50;372.00;;;351.05;;
11039;SDS011;5573;49.592;8.662;2023-04-29T04:11:24;382.58;;;361.13;;
11039;SDS011;5573;49.592;8.662;2023-04-29T04:13:59;365.23;;;344.80;;
11039;SDS011;5573;49.592;8.662;2023-04-29T04:16:28;353.05;;;333.23;;
11039;SDS011;5573;49.592;8.662;2023-04-29T04:18:56;355.48;;;335.73;;
11039;SDS011;5573;49.592;8.662;2023-04-29T04:21:24;382.40;;;360.55;;
11039;SDS011;5573;49.592;8.662;2023-04-29T04:23:59;370.00;;;349.08;;
11039;SDS011;5573;49.592;8.662;2023-04-29T04:26:29;383.05;;;361.17;;
11039;SDS011;5573;49.592;8.662;2023-04-29T04:29:06;371.38;;;350.40;;
11039;SDS011;5573;49.592;8.662;2023-04-29T04:31:52;373.88;;;353.35;;
11039;SDS011;5573;49.592;8.662;2023-04-29T04:34:21;389.35;;;367.27;;
11039;SDS011;5573;49.592;8.662;2023-04-29T04:36:51;373.67;;;352.40;;
11039;SDS011;5573;49.592;8.662;2023-04-29T04:39:20;392.60;;;370.40;;
11039;SDS011;5573;49.592;8.662;2023-04-29T04:41:50;396.80;;;374.42;;
11039;SDS011;5573;49.592;8.662;2023-04-29T04:44:19;384.70;;;363.05;;
11039;SDS011;5573;49.592;8.662;2023-04-29T04:46:55;373.73;;;353.20;;
11039;SDS011;5573;49.592;8.662;2023-04-29T04:49:38;385.92;;;363.83;;
11039;SDS011;5573;49.592;8.662;2023-04-29T04:52:05;398.17;;;375.23;;
11039;SDS011;5573;49.592;8.662;2023-04-29T04:54:34;391.33;;;369.48;;
11039;SDS011;5573;49.592;8.662;2023-04-29T04:57:12;373.35;;;352.33;;
11039;SDS011;5573;49.592;8.662;2023-04-29T04:59:40;365.70;;;345.20;;
11039;SDS011;5573;49.592;8.662;2023-04-29T05:02:08;393.05;;;370.67;;
11039;SDS011;5573;49.592;8.662;2023-04-29T05:04:36;380.75;;;359.38;;
11039;SDS011;5573;49.592;8.662;2023-04-29T05:07:04;374.33;;;353.33;;
11039;SDS011;5573;49.592;8.662;2023-04-29T05:09:47;391.77;;;369.58;;
11039;SDS011;5573;49.592;8.662;2023-04-29T05:12:16;375.15;;;353.70;;
11039;SDS011;5573;49.592;8.662;2023-04-29T05:14:44;368.05;;;347.10;;
11039;SDS011;5573;49.592;8.662;2023-04-29T05:17:12;393.80;;;371.50;;
11039;SDS011;5573;49.592;8.662;2023-04-29T05:19:40;399.17;;;376.80;;
11039;SDS011;5573;49.592;8.662;2023-04-29T05:22:10;387.15;;;365.38;;
11039;SDS011;5573;49.592;8.662;2023-04-29T05:24:39;385.95;;;364.05;;
11039;SDS011;5573;49.592;8.662;2023-04-29T05:27:07;371.13;;;350.30;;
11039;SDS011;5573;49.592;8.662;2023-04-29T05:29:36;405.77;;;383.58;;
11039;SDS011;5573;49.592;8.662;2023-04-29T05:32:04;390.13;;;367.95;;
11039;SDS011;5573;49.592;8.662;2023-04-29T05:34:32;373.15;;;352.00;;
11039;SDS011;5573;49.592;8.662;2023-04-29T05:37:00;394.13;;;371.85;;
11039;SDS011;5573;49.592;8.662;2023-04-29T05:39:30;397.63;;;374.73;;
11039;SDS011;5573;49.592;8.662;2023-04-29T05:42:07;388.55;;;366.83;;
11039;SDS011;5573;49.592;8.662;2023-04-29T05:44:40;365.83;;;345.25;;
11039;SDS011;5573;49.592;8.662;2023-04-29T05:47:08;386.83;;;364.95;;
11039;SDS011;5573;49.592;8.662;2023-04-29T05:49:37;397.73;;;374.90;;
11039;SDS011;5573;49.592;8.662;2023-04-29T05:52:05;384.25;;;362.48;;
11039;SDS011;5573;49.592;8.662;2023-04-29T05:54:39;388.77;;;366.50;;
11039;SDS011;5573;49.592;8.662;2023-04-29T05:57:06;392.27;;;370.13;;
11039;SDS011;5573;49.592;8.662;2023-04-29T05:59:34;366.88;;;345.95;;
11039;SDS011;5573;49.592;8.662;2023-04-29T06:02:05;384.23;;;362.23;;
11039;SDS011;5573;49.592;8.662;2023-04-29T06:04:34;375.33;;;354.15;;
11039;SDS011;5573;49.592;8.662;2023-04-29T06:07:12;367.38;;;346.70;;
11039;SDS011;5573;49.592;8.662;2023-04-29T06:09:49;379.38;;;357.60;;
11039;SDS011;5573;49.592;8.662;2023-04-29T06:12:17;374.80;;;353.92;;
11039;SDS011;5573;49.592;8.662;2023-04-29T06:14:45;370.27;;;349.25;;
11039;SDS011;5573;49.592;8.662;2023-04-29T06:17:15;355.92;;;336.00;;
11039;SDS011;5573;49.592;8.662;2023-04-29T06:19:42;390.55;;;368.85;;
11039;SDS011;5573;49.592;8.662;2023-04-29T06:22:10;380.98;;;359.98;;
11039;SDS011;5573;49.592;8.662;2023-04-29T06:24:43;380.95;;;359.67;;
11039;SDS011;5573;49.592;8.662;2023-04-29T06:27:13;366.38;;;345.25;;
11039;SDS011;5573;49.592;8.662;2023-04-29T06:29:41;371.73;;;350.80;;
11039;SDS011;5573;49.592;8.662;2023-04-29T06:32:11;364.85;;;344.40;;
11039;SDS011;5573;49.592;8.662;2023-04-29T06:34:41;375.35;;;353.92;;
11039;SDS011;5573;49.592;8.662;2023-04-29T06:37:31;359.30;;;339.20;;
11039;SDS011;5573;49.592;8.662;2023-04-29T06:40:23;369.27;;;348.65;;
11039;SDS011;5573;49.592;8.662;2023-04-29T06:43:20;333.70;;;314.75;;
11039;SDS011;5573;49.592;8.662;2023-04-29T06:46:14;370.27;;;349.73;;
11039;SDS011;5573;49.592;8.662;2023-04-29T06:48:49;370.70;;;349.33;;
11039;SDS011;5573;49.592;8.662;2023-04-29T06:51:19;362.85;;;342.20;;
11039;SDS011;5573;49.592;8.662;2023-04-29T06:53:46;365.83;;;344.77;;
11039;SDS011;5573;49.592;8.662;2023-04-29T06:56:14;365.33;;;345.20;;
11039;SDS011;5573;49.592;8.662;2023-04-29T06:58:42;369.83;;;349.25;;
11039;SDS011;5573;49.592;8.662;2023-04-29T07:01:10;380.15;;;358.05;;
11039;SDS011;5573;49.592;8.662;2023-04-29T07:03:38;374.45;;;353.38;;
11039;SDS011;5573;49.592;8.662;2023-04-29T07:06:05;347.60;;;327.85;;
11039;SDS011;5573;49.592;8.662;2023-04-29T07:08:35;374.60;;;353.33;;
11039;SDS011;5573;49.592;8.662;2023-04-29T07:11:03;346.52;;;327.13;;
11039;SDS011;5573;49.592;8.662;2023-04-29T07:13:31;355.77;;;335.67;;
11039;SDS011;5573;49.592;8.662;2023-04-29T07:15:59;341.13;;;321.88;;
11039;SDS011;5573;49.592;8.662;2023-04-29T07:18:26;356.88;;;336.73;;
11039;SDS011;5573;49.592;8.662;2023-04-29T07:20:59;357.27;;;337.67;;
11039;SDS011;5573;49.592;8.662;2023-04-29T07:23:27;357.17;;;336.90;;
11039;SDS011;5573;49.592;8.662;2023-04-29T07:25:56;358.55;;;337.98;;
11039;SDS011;5573;49.592;8.662;2023-04-29T07:28:24;347.52;;;327.58;;
11039;SDS011;5573;49.592;8.662;2023-04-29T07:30:51;352.77;;;333.25;;
11039;SDS011;5573;49.592;8.662;2023-04-29T07:33:19;375.35;;;354.48;;
11039;SDS011;5573;49.592;8.662;2023-04-29T07:35:47;352.85;;;332.60;;
11039;SDS011;5573;49.592;8.662;2023-04-29T07:38:15;340.50;;;321.45;;
11039;SDS011;5573;49.592;8.662;2023-04-29T07:40:43;341.27;;;321.80;;
11039;SDS011;5573;49.592;8.662;2023-04-29T07:43:13;359.23;;;338.67;;
11039;SDS011;5573;49.592;8.662;2023-04-29T07:45:40;374.42;;;353.67;;
11039;SDS011;5573;49.592;8.662;2023-04-29T07:48:09;360.23;;;339.20;;
11039;SDS011;5573;49.592;8.662;2023-04-29T07:50:36;354.63;;;334.42;;
11039;SDS011;5573;49.592;8.662;2023-04-29T07:53:04;342.80;;;323.27;;
11039;SDS011;5573;49.592;8.662;2023-04-29T07:55:32;345.73;;;326.05;;
11039;SDS011;5573;49.592;8.662;2023-04-29T07:58:00;340.30;;;321.30;;
11039;SDS011;5573;49.592;8.662;2023-04-29T08:00:29;324.65;;;306.45;;
11039;SDS011;5573;49.592;8.662;2023-04-29T08:02:57;332.63;;;314.08;;
11039;SDS011;5573;49.592;8.662;2023-04-29T08:05:25;323.05;;;305.13;;
11039;SDS011;5573;49.592;8.662;2023-04-29T08:07:53;294.77;;;278.35;;
11039;SDS011;5573;49.592;8.662;2023-04-29T08:10:23;319.80;;;301.83;;
11039;SDS011;5573;49.592;8.662;2023-04-29T08:12:52;328.40;;;310.40;;
11039;SDS011;5573;49.592;8.662;2023-04-29T08:15:21;342.73;;;323.58;;
11039;SDS011;5573;49.592;8.662;2023-04-29T08:17:50;335.23;;;316.52;;
11039;SDS011;5573;49.592;8.662;2023-04-29T08:20:18;329.85;;;312.08;;
11039;SDS011;5573;49.592;8.662;2023-04-29T08:22:46;371.13;;;350.13;;
11039;SDS011;5573;49.592;8.662;2023-04-29T08:25:13;357.73;;;337.85;;
11039;SDS011;5573;49.592;8.662;2023-04-29T08:27:42;345.98;;;327.02;;
11039;SDS011;5573;49.592;8.662;2023-04-29T08:30:11;345.33;;;326.15;;
11039;SDS011;5573;49.592;8.662;2023-04-29T08:32:39;346.17;;;327.20;;
11039;SDS011;5573;49.592;8.662;2023-04-29T08:35:08;358.50;;;338.73;;
11039;SDS011;5573;49.592;8.662;2023-04-29T08:37:36;335.63;;;317.05;;
11039;SDS011;5573;49.592;8.662;2023-04-29T08:40:04;339.33;;;320.67;;
11039;SDS011;5573;49.592;8.662;2023-04-29T08:42:35;342.52;;;323.75;;
11039;SDS011;5573;49.592;8.662;2023-04-29T08:45:04;342.48;;;323.50;;
11039;SDS011;5573;49.592;8.662;2023-04-29T08:47:32;324.92;;;307.15;;
11039;SDS011;5573;49.592;8.662;2023-04-29T08:50:01;346.98;;;327.92;;
11039;SDS011;5573;49.592;8.662;2023-04-29T08:52:32;351.33;;;331.75;;
11039;SDS011;5573;49.592;8.662;2023-04-29T08:55:01;345.00;;;325.80;;
11039;SDS011;5573;49.592;8.662;2023-04-29T08:57:30;341.92;;;322.98;;
11039;SDS011;5573;49.592;8.662;2023-04-29T09:00:05;341.95;;;323.52;;
11039;SDS011;5573;49.592;8.662;2023-04-29T09:02:36;324.98;;;307.38;;
11039;SDS011;5573;49.592;8.662;2023-04-29T09:05:08;336.08;;;317.50;;
11039;SDS011;5573;49.592;8.662;2023-04-29T09:07:38;335.60;;;317.10;;
11039;SDS011;5573;49.592;8.662;2023-04-29T09:10:07;344.77;;;326.23;;
11039;SDS011;5573;49.592;8.662;2023-04-29T09:12:36;311.13;;;294.15;;
11039;SDS011;5573;49.592;8.662;2023-04-29T09:15:04;322.85;;;305.20;;
11039;SDS011;5573;49.592;8.662;2023-04-29T09:17:41;314.00;;;297.13;;
11039;SDS011;5573;49.592;8.662;2023-04-29T09:20:24;309.95;;;293.00;;
11039;SDS011;5573;49.592;8.662;2023-04-29T09:22:55;305.00;;;288.70;;
11039;SDS011;5573;49.592;8.662;2023-04-29T09:25:24;308.38;;;291.48;;
11039;SDS011;5573;49.592;8.662;2023-04-29T09:27:51;293.20;;;277.63;;
11039;SDS011;5573;49.592;8.662;2023-04-29T09:30:20;307.15;;;290.48;;
11039;SDS011;5573;49.592;8.662;2023-04-29T09:33:04;310.70;;;294.30;;
11039;SDS011;5573;49.592;8.662;2023-04-29T09:35:33;298.42;;;282.38;;
11039;SDS011;5573;49.592;8.662;2023-04-29T09:38:10;310.25;;;293.40;;
11039;SDS011;5573;49.592;8.662;2023-04-29T09:40:40;301.48;;;285.10;;
11039;SDS011;5573;49.592;8.662;2023-04-29T09:43:24;303.42;;;287.00;;
11039;SDS011;5573;49.592;8.662;2023-04-29T09:45:52;314.17;;;297.23;;
11039;SDS011;5573;49.592;8.662;2023-04-29T09:48:20;330.42;;;312.50;;
11039;SDS011;5573;49.592;8.662;2023-04-29T09:50:58;317.17;;;299.73;;
11039;SDS011;5573;49.592;8.662;2023-04-29T09:53:29;315.02;;;298.02;;
11039;SDS011;5573;49.592;8.662;2023-04-29T09:55:58;321.00;;;303.73;;
11039;SDS011;5573;49.592;8.662;2023-04-29T09:58:27;332.92;;;314.75;;
11039;SDS011;5573;49.592;8.662;2023-04-29T10:00:57;322.95;;;305.60;;
11039;SDS011;5573;49.592;8.662;2023-04-29T10:03:27;354.35;;;335.42;;
11039;SDS011;5573;49.592;8.662;2023-04-29T10:05:59;350.17;;;330.98;;
11039;SDS011;5573;49.592;8.662;2023-04-29T10:08:29;370.95;;;350.90;;
11039;SDS011;5573;49.592;8.662;2023-04-29T10:10:58;356.02;;;336.98;;
11039;SDS011;5573;49.592;8.662;2023-04-29T10:13:27;352.52;;;333.73;;
11039;SDS011;5573;49.592;8.662;2023-04-29T10:15:57;375.23;;;354.90;;
11039;SDS011;5573;49.592;8.662;2023-04-29T10:18:34;353.15;;;334.25;;
11039;SDS011;5573;49.592;8.662;2023-04-29T10:21:04;371.38;;;351.67;;
11039;SDS011;5573;49.592;8.662;2023-04-29T10:23:36;368.38;;;348.63;;
11039;SDS011;5573;49.592;8.662;2023-04-29T10:26:04;360.17;;;340.90;;
11039;SDS011;5573;49.592;8.662;2023-04-29T10:28:33;362.30;;;342.83;;
11039;SDS011;5573;49.592;8.662;2023-04-29T10:31:03;342.52;;;323.80;;
11039;SDS011;5573;49.592;8.662;2023-04-29T10:33:33;358.40;;;339.00;;
11039;SDS011;5573;49.592;8.662;2023-04-29T10:36:02;347.35;;;328.85;;
11039;SDS011;5573;49.592;8.662;2023-04-29T10:38:32;352.70;;;333.75;;
11039;SDS011;5573;49.592;8.662;2023-04-29T10:41:08;352.55;;;333.83;;
11039;SDS011;5573;49.592;8.662;2023-04-29T10:43:47;338.30;;;319.92;;
11039;SDS011;5573;49.592;8.662;2023-04-29T10:46:19;352.13;;;333.75;;
11039;SDS011;5573;49.592;8.662;2023-04-29T10:48:50;350.67;;;332.13;;
11039;SDS011;5573;49.592;8.662;2023-04-29T10:51:29;362.00;;;342.42;;
11039;SDS011;5573;49.592;8.662;2023-04-29T10:54:00;353.67;;;334.83;;
11039;SDS011;5573;49.592;8.662;2023-04-29T10:56:36;346.98;;;327.80;;
11039;SDS011;5573;49.592;8.662;2023-04-29T10:59:08;352.17;;;333.63;;
11039;SDS011;5573;49.592;8.662;2023-04-29T11:04:22;348.65;;;330.13;;
11039;SDS011;5573;49.592;8.662;2023-04-29T11:06:51;345.73;;;327.15;;
11039;SDS011;5573;49.592;8.662;2023-04-29T11:09:24;345.58;;;327.00;;
11039;SDS011;5573;49.592;8.662;2023-04-29T11:11:59;355.88;;;336.92;;
11039;SDS011;5573;49.592;8.662;2023-04-29T11:14:30;590.28;;;531.20;;
11039;SDS011;5573;49.592;8.662;2023-04-29T11:17:02;400.60;;;373.85;;
11039;SDS011;5573;49.592;8.662;2023-04-29T11:19:31;371.67;;;350.00;;
11039;SDS011;5573;49.592;8.662;2023-04-29T11:22:03;373.95;;;353.58;;
11039;SDS011;5573;49.592;8.662;2023-04-29T11:24:48;356.90;;;337.13;;
11039;SDS011;5573;49.592;8.662;2023-04-29T11:27:18;363.60;;;344.33;;
11039;SDS011;5573;49.592;8.662;2023-04-29T11:29:50;356.02;;;336.92;;
11039;SDS011;5573;49.592;8.662;2023-04-29T11:32:21;336.65;;;318.60;;
11039;SDS011;5573;49.592;8.662;2023-04-29T11:34:49;371.75;;;350.98;;
11039;SDS011;5573;49.592;8.662;2023-04-29T11:37:23;363.15;;;343.27;;
11039;SDS011;5573;49.592;8.662;2023-04-29T11:39:59;355.80;;;336.70;;
11039;SDS011;5573;49.592;8.662;2023-04-29T11:42:27;355.70;;;336.38;;
11039;SDS011;5573;49.592;8.662;2023-04-29T11:44:55;334.95;;;317.15;;
11039;SDS011;5573;49.592;8.662;2023-04-29T11:47:25;339.98;;;321.58;;
11039;SDS011;5573;49.592;8.662;2023-04-29T11:50:00;354.83;;;335.75;;
11039;SDS011;5573;49.592;8.662;2023-04-29T11:52:29;340.15;;;322.02;;
11039;SDS011;5573;49.592;8.662;2023-04-29T11:54:58;360.58;;;340.75;;
11039;SDS011;5573;49.592;8.662;2023-04-29T11:57:27;370.48;;;349.90;;
11039;SDS011;5573;49.592;8.662;2023-04-29T11:59:56;370.67;;;349.77;;
11039;SDS011;5573;49.592;8.662;2023-04-29T12:02:27;362.98;;;343.23;;
11039;SDS011;5573;49.592;8.662;2023-04-29T12:04:56;356.08;;;336.48;;
11039;SDS011;5573;49.592;8.662;2023-04-29T12:07:24;355.50;;;336.13;;
11039;SDS011;5573;49.592;8.662;2023-04-29T12:09:53;337.77;;;319.73;;
11039;SDS011;5573;49.592;8.662;2023-04-29T12:12:23;362.13;;;342.63;;
11039;SDS011;5573;49.592;8.662;2023-04-29T12:14:52;354.60;;;335.30;;
11039;SDS011;5573;49.592;8.662;2023-04-29T12:17:21;388.77;;;367.73;;
11039;SDS011;5573;49.592;8.662;2023-04-29T12:19:50;339.27;;;321.45;;
11039;SDS011;5573;49.592;8.662;2023-04-29T12:22:18;318.00;;;300.77;;
11039;SDS011;5573;49.592;8.662;2023-04-29T12:24:46;326.10;;;306.92;;
11039;SDS011;5573;49.592;8.662;2023-04-29T12:27:16;309.52;;;292.83;;
11039;SDS011;5573;49.592;8.662;2023-04-29T12:29:45;326.00;;;308.67;;
11039;SDS011;5573;49.592;8.662;2023-04-29T12:32:15;320.70;;;303.83;;
11039;SDS011;5573;49.592;8.662;2023-04-29T12:34:44;332.02;;;314.30;;
11039;SDS011;5573;49.592;8.662;2023-04-29T12:37:12;311.50;;;294.88;;
11039;SDS011;5573;49.592;8.662;2023-04-29T12:39:41;288.80;;;273.65;;
11039;SDS011;5573;49.592;8.662;2023-04-29T12:42:13;300.55;;;284.10;;
11039;SDS011;5573;49.592;8.662;2023-04-29T12:44:44;290.42;;;274.73;;
11039;SDS011;5573;49.592;8.662;2023-04-29T12:47:13;294.10;;;278.60;;
11039;SDS011;5573;49.592;8.662;2023-04-29T12:49:43;296.45;;;280.77;;
11039;SDS011;5573;49.592;8.662;2023-04-29T12:52:13;311.23;;;294.45;;
11039;SDS011;5573;49.592;8.662;2023-04-29T12:54:41;321.40;;;304.23;;
11039;SDS011;5573;49.592;8.662;2023-04-29T12:57:09;329.23;;;311.55;;
11039;SDS011;5573;49.592;8.662;2023-04-29T12:59:38;330.98;;;313.25;;
11039;SDS011;5573;49.592;8.662;2023-04-29T13:02:07;336.10;;;317.95;;
11039;SDS011;5573;49.592;8.662;2023-04-29T13:04:35;337.05;;;319.25;;
11039;SDS011;5573;49.592;8.662;2023-04-29T13:07:05;337.77;;;319.42;;
11039;SDS011;5573;49.592;8.662;2023-04-29T13:09:32;317.95;;;300.73;;
11039;SDS011;5573;49.592;8.662;2023-04-29T13:12:03;326.58;;;308.98;;
11039;SDS011;5573;49.592;8.662;2023-04-29T13:14:34;321.70;;;304.60;;
11039;SDS011;5573;49.592;8.662;2023-04-29T13:17:02;271.85;;;257.27;;
11039;SDS011;5573;49.592;8.662;2023-04-29T13:19:31;294.60;;;278.90;;
11039;SDS011;5573;49.592;8.662;2023-04-29T13:22:15;290.77;;;275.13;;
11039;SDS011;5573;49.592;8.662;2023-04-29T13:24:43;310.73;;;294.00;;
11039;SDS011;5573;49.592;8.662;2023-04-29T13:27:11;303.10;;;286.80;;
11039;SDS011;5573;49.592;8.662;2023-04-29T13:29:38;301.58;;;285.30;;
11039;SDS011;5573;49.592;8.662;2023-04-29T13:32:06;312.00;;;294.88;;
11039;SDS011;5573;49.592;8.662;2023-04-29T13:34:36;307.77;;;291.42;;
11039;SDS011;5573;49.592;8.662;2023-04-29T13:37:03;295.20;;;279.42;;
11039;SDS011;5573;49.592;8.662;2023-04-29T13:39:31;281.77;;;266.48;;
11039;SDS011;5573;49.592;8.662;2023-04-29T13:42:03;292.42;;;276.73;;
11039;SDS011;5573;49.592;8.662;2023-04-29T13:44:31;314.58;;;297.85;;
11039;SDS011;5573;49.592;8.662;2023-04-29T13:47:16;273.42;;;258.83;;
11039;SDS011;5573;49.592;8.662;2023-04-29T13:49:52;293.15;;;277.30;;
11039;SDS011;5573;49.592;8.662;2023-04-29T13:52:23;299.48;;;283.52;;
11039;SDS011;5573;49.592;8.662;2023-04-29T13:55:10;275.77;;;260.73;;
11039;SDS011;5573;49.592;8.662;2023-04-29T13:57:41;315.35;;;298.25;;
11039;SDS011;5573;49.592;8.662;2023-04-29T14:00:12;288.38;;;272.90;;
11039;SDS011;5573;49.592;8.662;2023-04-29T14:03:01;264.67;;;250.45;;
11039;SDS011;5573;49.592;8.662;2023-04-29T14:05:30;297.80;;;282.08;;
11039;SDS011;5573;49.592;8.662;2023-04-29T14:07:58;288.38;;;272.77;;
11039;SDS011;5573;49.592;8.662;2023-04-29T14:10:26;318.00;;;300.73;;
11039;SDS011;5573;49.592;8.662;2023-04-29T14:12:54;286.50;;;271.20;;
11039;SDS011;5573;49.592;8.662;2023-04-29T14:15:22;293.52;;;277.75;;
11039;SDS011;5573;49.592;8.662;2023-04-29T14:17:49;292.85;;;276.95;;
11039;SDS011;5573;49.592;8.662;2023-04-29T14:20:18;287.30;;;272.00;;
11039;SDS011;5573;49.592;8.662;2023-04-29T14:22:47;295.45;;;279.63;;
11039;SDS011;5573;49.592;8.662;2023-04-29T14:25:15;276.98;;;262.10;;
11039;SDS011;5573;49.592;8.662;2023-04-29T14:27:43;256.13;;;242.70;;
11039;SDS011;5573;49.592;8.662;2023-04-29T14:30:10;286.52;;;271.15;;